Hector, New York
Current Conditions -  °F | °C
As of 3:14 AM on Monday 24 Nov 2014 (Local Time) from KPEO Reporting Station
Moderate Rain Moderate Rain  
Wind Chill: 50°   Ceiling: 1200
Heat Index: 50°   Visibility: 6mi
Dew Point: 46°   Wind: 13mph
Humidity: 86%   Direction: 190°S
Pressure: 29.49"   Gusts: 21mph
Location:  42.5°N, 76.87°W
Report Text: KPEO 240814Z AUTO 19011G18KT 6SM RA BR BKN012 BKN037 OVC100 10/08 A2949 RMK AO2 P0002 T01000078
Loading
Personal Weather Stations






























Interactive Weather Map New forecast layout! Learn more

10-Day Weather Forecast

Advertisements
Track Severe Weather on mobile